Time;durP1;ratioP1;P1;durP2;ratioP2;P2;SDS_P1;SDS_P2;PMS_P1;PMS_P2;Temp;Humidity;BMP_temperature;BMP_pressure;BME280_temperature;BME280_humidity;BME280_pressure;Samples;Min_cycle;Max_cycle;Signal;HPM_P1;HPM_P2
2021/03/09 00:01:51;;;;;;;36.42;21.58;;;7.50;99.90;;;;;;5026595;28;20192;-89
2021/03/09 00:04:17;;;;;;;32.95;21.00;;;7.30;99.90;;;;;;5038780;28;20248;-89
2021/03/09 00:06:43;;;;;;;34.30;19.88;;;7.40;99.90;;;;;;5038232;28;20223;-89
2021/03/09 00:09:10;;;;;;;32.75;22.40;;;7.40;99.90;;;;;;5037750;28;20220;-89
2021/03/09 00:11:36;;;;;;;33.65;21.02;;;7.40;99.90;;;;;;5037978;28;20223;-89
2021/03/09 00:14:03;;;;;;;33.53;21.20;;;7.30;99.90;;;;;;5038081;28;20207;-89
2021/03/09 00:16:29;;;;;;;30.38;19.75;;;7.30;99.90;;;;;;5037670;28;20196;-89
2021/03/09 00:18:56;;;;;;;31.92;19.50;;;7.30;99.90;;;;;;5037517;28;20219;-89
2021/03/09 00:21:22;;;;;;;35.55;19.85;;;7.30;99.90;;;;;;5015156;28;20196;-89
2021/03/09 00:23:49;;;;;;;34.72;19.70;;;7.30;99.90;;;;;;5037645;28;20218;-89
2021/03/09 00:26:15;;;;;;;34.45;21.50;;;7.40;99.90;;;;;;5022087;28;20220;-89
2021/03/09 00:28:41;;;;;;;35.47;22.50;;;7.40;99.90;;;;;;5037080;28;20220;-89
2021/03/09 00:31:07;;;;;;;34.85;21.83;;;7.40;99.90;;;;;;5021419;28;20220;-89
2021/03/09 00:33:34;;;;;;;37.28;20.90;;;7.40;99.90;;;;;;5036868;28;20581;-89
2021/03/09 00:36:01;;;;;;;34.97;22.25;;;7.40;99.90;;;;;;5037449;28;20240;-89
2021/03/09 00:38:27;;;;;;;33.67;21.58;;;7.30;99.90;;;;;;5038041;28;20195;-89
2021/03/09 00:40:54;;;;;;;32.65;19.67;;;7.30;99.90;;;;;;5007569;28;20769;-88
2021/03/09 00:43:20;;;;;;;37.03;21.85;;;7.30;99.90;;;;;;5034501;28;20262;-88
2021/03/09 00:45:46;;;;;;;36.72;21.73;;;7.40;99.90;;;;;;5037811;28;20600;-90
2021/03/09 00:48:13;;;;;;;30.52;19.92;;;7.40;99.90;;;;;;5019411;28;20748;-89
2021/03/09 00:50:39;;;;;;;35.22;20.00;;;7.40;99.90;;;;;;5038079;28;20223;-89
2021/03/09 00:53:06;;;;;;;34.80;20.05;;;7.40;99.90;;;;;;5026055;28;20228;-90
2021/03/09 00:55:32;;;;;;;30.92;18.90;;;7.40;99.90;;;;;;5040191;28;20340;-91
2021/03/09 00:58:00;;;;;;;30.95;19.58;;;7.30;99.90;;;;;;5036391;28;20582;-89
2021/03/09 01:00:28;;;;;;;36.92;21.00;;;7.40;99.90;;;;;;5028196;28;20306;-90
2021/03/09 01:02:55;;;;;;;34.08;20.70;;;7.40;99.90;;;;;;5038138;28;20215;-90
2021/03/09 01:05:23;;;;;;;34.90;20.45;;;7.30;99.90;;;;;;5036637;28;20269;-89
2021/03/09 01:07:50;;;;;;;31.20;19.98;;;7.30;99.90;;;;;;5050440;28;20219;-89
2021/03/09 01:10:18;;;;;;;33.67;20.55;;;7.30;99.90;;;;;;5033365;28;20203;-89
2021/03/09 01:12:45;;;;;;;29.60;19.33;;;7.30;99.90;;;;;;5036277;28;20219;-89
2021/03/09 01:15:12;;;;;;;30.83;18.95;;;7.30;99.90;;;;;;5030899;28;20219;-88
2021/03/09 01:17:38;;;;;;;32.25;19.67;;;7.30;99.90;;;;;;5013421;28;20528;-90
2021/03/09 01:20:07;;;;;;;29.17;19.15;;;7.30;99.90;;;;;;5019577;28;20861;-89
2021/03/09 01:22:33;;;;;;;29.35;19.73;;;7.40;99.90;;;;;;5037037;28;20223;-89
2021/03/09 01:25:00;;;;;;;32.88;20.83;;;7.30;99.90;;;;;;5019009;28;20238;-91
2021/03/09 01:27:27;;;;;;;30.38;19.75;;;7.30;99.90;;;;;;5036024;28;20212;-91
2021/03/09 01:29:53;;;;;;;31.73;19.50;;;7.30;99.90;;;;;;5036702;28;20224;-90
2021/03/09 01:32:19;;;;;;;37.20;20.88;;;7.40;99.90;;;;;;5036155;28;20238;-90
2021/03/09 01:34:47;;;;;;;33.72;20.38;;;7.40;99.90;;;;;;5036652;28;20211;-89
2021/03/09 01:37:14;;;;;;;31.60;18.77;;;7.40;99.90;;;;;;5017978;28;20301;-89
2021/03/09 01:39:40;;;;;;;27.80;17.70;;;7.40;99.90;;;;;;5037080;28;20219;-90
2021/03/09 01:42:07;;;;;;;26.50;16.80;;;7.40;99.90;;;;;;5010113;28;20212;-89
2021/03/09 01:44:34;;;;;;;33.65;18.90;;;7.30;99.90;;;;;;5036776;28;20234;-89
2021/03/09 01:47:01;;;;;;;32.35;19.67;;;7.40;99.90;;;;;;5036566;28;20202;-88
2021/03/09 01:49:30;;;;;;;33.55;18.13;;;7.40;99.90;;;;;;5035940;28;20232;-88
2021/03/09 01:51:56;;;;;;;29.13;18.30;;;7.30;99.90;;;;;;5031412;28;20234;-89
2021/03/09 01:54:22;;;;;;;33.40;19.00;;;7.40;99.90;;;;;;5035966;28;20219;-89
2021/03/09 01:56:49;;;;;;;33.03;20.17;;;7.30;99.90;;;;;;5035643;28;20196;-88
2021/03/09 01:59:17;;;;;;;25.80;16.67;;;7.40;99.90;;;;;;5035547;28;20257;-90
2021/03/09 02:01:44;;;;;;;31.42;18.02;;;7.30;99.90;;;;;;5035812;28;20200;-88
2021/03/09 02:04:11;;;;;;;37.10;18.20;;;7.40;99.90;;;;;;5014069;28;20219;-89
2021/03/09 02:06:38;;;;;;;25.85;16.85;;;7.30;99.90;;;;;;5034369;28;20219;-89
2021/03/09 02:09:06;;;;;;;32.97;19.60;;;7.60;99.90;;;;;;5037050;28;20188;-89
2021/03/09 02:11:37;;;;;;;25.23;17.80;;;7.30;99.90;;;;;;5037016;28;20222;-89
2021/03/09 02:14:09;;;;;;;30.30;18.23;;;7.30;99.90;;;;;;5035960;28;20223;-89
2021/03/09 02:16:42;;;;;;;35.63;20.27;;;7.40;99.90;;;;;;5032008;28;20230;-89
2021/03/09 02:19:50;;;;;;;27.60;18.83;;;7.40;99.90;;;;;;5035796;28;20183;-89
2021/03/09 02:22:39;;;;;;;32.22;18.40;;;7.30;99.90;;;;;;5030922;28;20220;-88
2021/03/09 02:25:13;;;;;;;38.10;19.02;;;7.30;99.90;;;;;;5026277;28;20245;-88
2021/03/09 02:27:57;;;;;;;34.13;19.25;;;7.30;99.90;;;;;;5033286;28;20704;-88
2021/03/09 02:30:27;;;;;;;33.17;19.33;;;7.30;99.90;;;;;;5034619;28;20263;-88
2021/03/09 02:33:00;;;;;;;27.40;17.10;;;7.40;99.90;;;;;;5034286;28;20219;-88
2021/03/09 02:35:29;;;;;;;29.92;17.02;;;7.30;99.90;;;;;;5034846;28;20582;-88
2021/03/09 02:38:01;;;;;;;28.60;17.90;;;7.30;99.90;;;;;;5033269;28;20220;-86
2021/03/09 02:40:29;;;;;;;29.83;18.13;;;7.40;99.90;;;;;;5032290;28;20615;-85
2021/03/09 02:43:00;;;;;;;29.15;18.70;;;7.30;99.90;;;;;;5034879;28;20224;-89
2021/03/09 02:45:28;;;;;;;32.08;18.30;;;7.30;99.90;;;;;;5017398;28;20635;-89
2021/03/09 02:47:56;;;;;;;31.98;18.08;;;7.30;99.90;;;;;;5050440;28;20230;-89
2021/03/09 02:50:25;;;;;;;29.90;18.55;;;7.30;99.90;;;;;;5034804;28;20697;-89
2021/03/09 02:52:55;;;;;;;27.90;17.23;;;7.30;99.90;;;;;;5033615;28;20230;-89
2021/03/09 02:55:21;;;;;;;28.13;17.95;;;7.30;99.90;;;;;;5035346;28;20196;-89
2021/03/09 02:57:50;;;;;;;29.65;19.17;;;7.30;99.90;;;;;;5016045;28;20238;-89
2021/03/09 03:00:18;;;;;;;29.30;17.27;;;7.30;99.90;;;;;;5034462;28;20245;-89
2021/03/09 03:02:47;;;;;;;32.75;20.05;;;7.30;99.90;;;;;;5050567;28;20228;-90
2021/03/09 03:05:14;;;;;;;34.97;19.90;;;7.30;99.90;;;;;;5032976;28;20222;-88
2021/03/09 03:07:42;;;;;;;28.13;18.83;;;7.30;99.90;;;;;;5033147;28;20686;-89
2021/03/09 03:10:13;;;;;;;31.05;18.33;;;7.40;99.90;;;;;;5034791;28;20195;-89
2021/03/09 03:12:40;;;;;;;28.55;17.63;;;7.30;99.90;;;;;;5033464;28;20786;-89
2021/03/09 03:15:10;;;;;;;30.40;18.45;;;7.30;99.90;;;;;;5034891;28;20211;-89
2021/03/09 03:17:37;;;;;;;36.30;19.45;;;7.30;99.90;;;;;;5034331;28;20659;-89
2021/03/09 03:20:08;;;;;;;39.67;21.00;;;7.30;99.90;;;;;;5027583;28;20196;-90
2021/03/09 03:22:37;;;;;;;24.92;16.13;;;7.30;99.90;;;;;;5008716;28;20219;-90
2021/03/09 03:25:05;;;;;;;33.42;18.75;;;7.30;99.90;;;;;;5034209;28;20219;-89
2021/03/09 03:27:33;;;;;;;28.20;17.52;;;7.30;99.90;;;;;;5029168;28;20218;-90
2021/03/09 03:29:59;;;;;;;30.67;18.88;;;7.30;99.90;;;;;;4982035;28;20666;-90
2021/03/09 03:32:25;;;;;;;36.35;20.00;;;7.30;99.90;;;;;;5031738;28;20238;-89
2021/03/09 03:34:52;;;;;;;32.95;19.95;;;7.30;99.90;;;;;;5034641;28;20192;-90
2021/03/09 03:37:20;;;;;;;35.33;18.35;;;7.30;99.90;;;;;;5039178;28;20218;-89
2021/03/09 03:39:46;;;;;;;28.98;17.40;;;7.30;99.90;;;;;;5054837;28;20574;-89
2021/03/09 03:42:13;;;;;;;32.13;20.33;;;7.30;99.90;;;;;;5046466;28;20235;-90
2021/03/09 03:44:40;;;;;;;30.33;18.65;;;7.30;99.90;;;;;;5034844;28;20227;-88
2021/03/09 03:47:06;;;;;;;29.10;17.45;;;7.30;99.90;;;;;;5034304;28;20216;-88
2021/03/09 03:49:33;;;;;;;32.42;19.60;;;7.30;99.90;;;;;;5045593;28;20223;-89
2021/03/09 03:52:06;;;;;;;34.70;19.50;;;7.30;99.90;;;;;;5040701;28;20227;-89
2021/03/09 03:54:42;;;;;;;30.98;20.23;;;7.30;99.90;;;;;;5035153;28;20195;-88
2021/03/09 03:57:16;;;;;;;33.22;19.40;;;7.30;99.90;;;;;;5015907;28;20745;-89
2021/03/09 03:59:47;;;;;;;29.77;18.45;;;7.30;99.90;;;;;;5015197;28;20195;-87
2021/03/09 04:02:15;;;;;;;28.65;17.10;;;7.30;99.90;;;;;;5019232;28;20231;-86
2021/03/09 04:04:45;;;;;;;30.88;17.75;;;7.30;99.90;;;;;;5032718;28;20216;-87
2021/03/09 04:07:11;;;;;;;28.70;19.25;;;7.20;99.90;;;;;;5035069;28;20202;-85
2021/03/09 04:09:38;;;;;;;30.88;17.75;;;7.30;99.90;;;;;;5029617;28;20280;-87
2021/03/09 04:12:07;;;;;;;28.52;18.10;;;7.30;99.90;;;;;;5036853;28;20226;-87
2021/03/09 04:14:34;;;;;;;33.22;21.58;;;7.30;99.90;;;;;;5037885;28;20772;-87
2021/03/09 04:17:02;;;;;;;33.78;20.00;;;7.30;99.90;;;;;;5037905;28;20242;-88
2021/03/09 04:19:30;;;;;;;33.67;20.10;;;7.30;99.90;;;;;;5037987;28;20701;-88
2021/03/09 04:21:58;;;;;;;32.95;19.35;;;7.30;99.90;;;;;;5037055;28;20294;-87
2021/03/09 04:24:25;;;;;;;33.70;18.35;;;7.30;99.90;;;;;;5037232;28;20227;-87
2021/03/09 04:26:52;;;;;;;29.65;18.27;;;7.30;99.90;;;;;;5037158;28;20216;-87
2021/03/09 04:29:19;;;;;;;33.80;19.33;;;7.30;99.90;;;;;;5033907;28;20265;-87
2021/03/09 04:31:46;;;;;;;30.30;21.42;;;7.20;99.90;;;;;;5036914;28;20238;-87
2021/03/09 04:34:13;;;;;;;31.38;19.25;;;7.30;99.90;;;;;;5036341;28;20207;-86
2021/03/09 04:36:41;;;;;;;30.90;19.48;;;7.20;99.90;;;;;;5036113;28;20223;-86
2021/03/09 04:39:08;;;;;;;34.95;19.42;;;7.20;99.90;;;;;;5036631;28;20227;-87
2021/03/09 04:41:35;;;;;;;35.90;20.90;;;7.30;99.90;;;;;;5036155;28;20216;-87
2021/03/09 04:44:04;;;;;;;29.80;18.40;;;7.30;99.90;;;;;;5019247;28;20227;-87
2021/03/09 04:46:30;;;;;;;32.20;20.88;;;7.30;99.90;;;;;;5017951;28;20188;-86
2021/03/09 04:48:57;;;;;;;31.98;18.70;;;7.20;99.90;;;;;;5037702;28;20215;-88
2021/03/09 04:51:24;;;;;;;31.20;19.65;;;7.20;99.90;;;;;;5036702;28;20597;-88
2021/03/09 04:53:52;;;;;;;26.23;18.15;;;7.20;99.90;;;;;;5037520;28;20195;-88
2021/03/09 04:56:18;;;;;;;28.58;18.52;;;7.20;99.90;;;;;;5024586;28;20200;-85
2021/03/09 04:58:44;;;;;;;30.42;18.48;;;7.20;99.90;;;;;;5034377;28;20200;-85
2021/03/09 05:01:11;;;;;;;27.75;17.33;;;7.20;99.90;;;;;;5034035;28;20224;-85
2021/03/09 05:03:38;;;;;;;29.55;19.27;;;7.20;99.90;;;;;;5035682;28;20220;-85
2021/03/09 05:06:04;;;;;;;30.52;20.50;;;7.30;99.90;;;;;;5032717;28;20203;-85
2021/03/09 05:08:31;;;;;;;29.35;19.90;;;7.30;99.90;;;;;;5032173;28;20195;-85
2021/03/09 05:10:57;;;;;;;29.75;17.25;;;7.20;99.90;;;;;;5035984;28;20223;-85
2021/03/09 05:13:24;;;;;;;30.05;19.05;;;7.20;99.90;;;;;;5033720;28;20865;-85
2021/03/09 05:15:50;;;;;;;29.30;18.42;;;7.20;99.90;;;;;;5031024;28;20490;-86
2021/03/09 05:18:18;;;;;;;29.38;18.48;;;7.20;99.90;;;;;;5031463;28;20226;-86
2021/03/09 05:20:44;;;;;;;24.92;18.08;;;7.20;99.90;;;;;;5024260;28;20734;-85
2021/03/09 05:23:10;;;;;;;30.67;18.77;;;7.20;99.90;;;;;;5031704;28;20219;-86
2021/03/09 05:25:37;;;;;;;31.60;20.30;;;7.20;99.90;;;;;;5036298;28;20219;-86
2021/03/09 05:28:03;;;;;;;25.73;19.13;;;7.20;99.90;;;;;;5035228;28;20215;-86
2021/03/09 05:30:30;;;;;;;31.08;19.67;;;7.20;99.90;;;;;;5033609;28;20629;-85
2021/03/09 05:32:57;;;;;;;28.08;19.15;;;7.20;99.90;;;;;;5035760;28;20212;-86
2021/03/09 05:35:25;;;;;;;31.15;18.35;;;7.20;99.90;;;;;;5022203;28;20220;-88
2021/03/09 05:37:51;;;;;;;27.50;19.67;;;7.20;99.90;;;;;;5009686;28;20695;-89
2021/03/09 05:40:18;;;;;;;28.55;20.20;;;7.20;99.90;;;;;;5042339;28;20219;-89
2021/03/09 05:42:49;;;;;;;25.40;16.98;;;7.20;99.90;;;;;;5044799;28;20192;-89
2021/03/09 05:45:16;;;;;;;35.30;20.35;;;7.30;99.90;;;;;;5034980;28;20215;-89
2021/03/09 05:47:43;;;;;;;27.83;18.92;;;7.20;99.90;;;;;;5035117;28;20227;-89
2021/03/09 05:50:11;;;;;;;29.65;19.35;;;7.20;99.90;;;;;;5035667;28;20242;-89
2021/03/09 05:52:39;;;;;;;33.70;19.63;;;7.20;99.90;;;;;;5034195;28;20227;-90
2021/03/09 05:55:08;;;;;;;32.00;21.85;;;7.20;99.90;;;;;;5035060;28;20215;-89
2021/03/09 05:57:35;;;;;;;30.05;19.65;;;7.30;99.90;;;;;;5034453;28;22333;-89
2021/03/09 06:00:02;;;;;;;33.67;21.35;;;7.20;99.90;;;;;;5036171;28;20226;-88
2021/03/09 06:02:28;;;;;;;30.98;20.58;;;7.20;99.90;;;;;;5029793;28;20216;-89
2021/03/09 06:04:55;;;;;;;31.60;19.50;;;7.20;99.90;;;;;;5026702;28;20196;-89
2021/03/09 06:07:21;;;;;;;24.02;18.13;;;7.20;99.90;;;;;;5039853;28;20194;-87
2021/03/09 06:09:49;;;;;;;30.55;20.00;;;7.20;99.90;;;;;;5046646;28;20219;-88
2021/03/09 06:12:18;;;;;;;27.90;19.90;;;7.20;99.90;;;;;;5034955;28;20234;-86
2021/03/09 06:14:46;;;;;;;27.83;19.02;;;7.20;99.90;;;;;;5031498;28;20230;-86
2021/03/09 06:17:14;;;;;;;28.02;18.88;;;7.20;99.90;;;;;;5021960;28;20586;-87
2021/03/09 06:19:42;;;;;;;30.15;19.05;;;7.20;99.90;;;;;;5034729;28;20733;-87
2021/03/09 06:22:08;;;;;;;30.10;19.08;;;7.20;99.90;;;;;;5026410;28;20223;-87
2021/03/09 06:24:35;;;;;;;28.13;19.83;;;7.20;99.90;;;;;;5020936;28;20231;-87
2021/03/09 06:27:02;;;;;;;28.08;19.25;;;7.20;99.90;;;;;;5049528;28;20196;-87
2021/03/09 06:29:28;;;;;;;30.27;18.90;;;7.20;99.90;;;;;;5034009;28;20215;-87
2021/03/09 06:32:03;;;;;;;30.42;19.60;;;7.20;99.90;;;;;;5048461;28;20268;-84
2021/03/09 06:34:31;;;;;;;32.90;22.00;;;7.30;99.90;;;;;;5045916;28;20218;-84
2021/03/09 06:37:06;;;;;;;32.92;21.58;;;7.20;99.90;;;;;;5031489;28;20223;-83
2021/03/09 06:39:55;;;;;;;33.78;22.08;;;7.20;99.90;;;;;;5033205;28;20296;-85
2021/03/09 06:42:25;;;;;;;29.60;19.67;;;7.10;99.90;;;;;;5032724;28;20227;-85
2021/03/09 06:44:54;;;;;;;25.95;17.90;;;7.10;99.90;;;;;;5033199;28;20214;-85
2021/03/09 06:47:32;;;;;;;29.88;19.10;;;7.20;99.90;;;;;;5033673;28;20223;-86
2021/03/09 06:49:59;;;;;;;27.75;19.15;;;7.10;99.90;;;;;;5034437;28;20641;-87
2021/03/09 06:52:26;;;;;;;28.30;19.40;;;7.20;99.90;;;;;;5034316;28;20292;-86
2021/03/09 06:54:54;;;;;;;30.20;19.45;;;7.20;99.90;;;;;;5026657;28;20211;-86
2021/03/09 06:57:21;;;;;;;31.05;20.70;;;7.10;99.90;;;;;;5021861;28;20218;-87
2021/03/09 06:59:50;;;;;;;28.45;18.83;;;7.10;99.90;;;;;;5032058;28;20273;-84
2021/03/09 07:02:18;;;;;;;33.67;22.48;;;7.10;99.90;;;;;;5028594;28;20227;-85
2021/03/09 07:04:46;;;;;;;28.88;19.50;;;7.10;99.90;;;;;;5031777;28;20198;-85
2021/03/09 07:07:14;;;;;;;29.98;19.83;;;7.10;99.90;;;;;;5032876;28;20215;-86
2021/03/09 07:09:41;;;;;;;32.65;20.73;;;7.10;99.90;;;;;;5036798;28;20237;-87
2021/03/09 07:12:10;;;;;;;28.20;18.65;;;7.10;99.90;;;;;;5052129;28;20227;-85
2021/03/09 07:14:40;;;;;;;32.75;20.85;;;7.10;99.90;;;;;;5042194;28;20192;-87
2021/03/09 07:17:08;;;;;;;28.45;18.90;;;7.10;99.90;;;;;;5031769;28;20214;-87
2021/03/09 07:19:37;;;;;;;27.45;19.08;;;7.10;99.90;;;;;;5019548;28;20655;-84
2021/03/09 07:22:05;;;;;;;30.65;20.10;;;7.10;99.90;;;;;;5016770;28;20270;-85
2021/03/09 07:24:32;;;;;;;31.15;20.45;;;7.10;99.90;;;;;;5030221;28;20211;-84
2021/03/09 07:27:05;;;;;;;28.48;19.40;;;7.10;99.90;;;;;;5028466;28;20216;-80
2021/03/09 07:29:35;;;;;;;30.92;21.67;;;7.10;99.90;;;;;;5023434;28;20708;-81
2021/03/09 07:32:04;;;;;;;28.42;18.70;;;7.10;99.90;;;;;;5029195;28;20231;-78
2021/03/09 07:34:34;;;;;;;27.30;19.45;;;7.10;99.90;;;;;;5027312;28;20216;-79
2021/03/09 07:37:01;;;;;;;28.15;19.13;;;7.10;99.90;;;;;;5029661;28;20226;-79
2021/03/09 07:39:28;;;;;;;28.98;18.65;;;7.00;99.90;;;;;;5025997;28;20195;-80
2021/03/09 07:41:55;;;;;;;26.55;19.08;;;7.10;99.90;;;;;;5031398;28;20242;-80
2021/03/09 07:44:22;;;;;;;28.67;19.77;;;7.00;99.90;;;;;;5049187;28;20202;-80
2021/03/09 07:46:49;;;;;;;28.73;20.33;;;7.10;99.90;;;;;;5032903;28;20215;-79
2021/03/09 07:49:16;;;;;;;29.88;21.33;;;7.00;99.90;;;;;;5029970;28;20278;-79
2021/03/09 07:52:08;;;;;;;28.02;18.90;;;7.00;99.90;;;;;;5038673;28;20689;-80
2021/03/09 07:54:35;;;;;;;27.42;19.65;;;7.00;99.90;;;;;;5027603;28;20191;-79
2021/03/09 07:57:18;;;;;;;29.77;19.60;;;7.00;99.90;;;;;;5034236;28;20192;-79
2021/03/09 07:59:59;;;;;;;25.10;17.95;;;7.00;99.90;;;;;;5032753;28;20276;-80
2021/03/09 08:02:45;;;;;;;28.05;18.02;;;7.00;99.90;;;;;;5030905;28;20602;-80
2021/03/09 08:05:14;;;;;;;30.23;18.27;;;7.10;99.90;;;;;;5027022;28;20279;-81
2021/03/09 08:07:58;;;;;;;30.45;19.55;;;7.10;99.90;;;;;;5032665;28;20238;-80
2021/03/09 08:10:44;;;;;;;25.00;17.83;;;7.10;99.90;;;;;;5035949;28;20306;-80
2021/03/09 08:13:27;;;;;;;27.27;19.10;;;7.10;99.90;;;;;;5029180;28;20218;-82
2021/03/09 08:16:30;;;;;;;25.48;20.00;;;7.10;99.90;;;;;;5030220;28;20227;-81
2021/03/09 08:19:05;;;;;;;27.10;17.35;;;7.10;99.90;;;;;;5015244;28;20227;-80
2021/03/09 08:21:55;;;;;;;32.80;21.42;;;7.10;99.90;;;;;;5032671;28;20219;-80
2021/03/09 08:24:55;;;;;;;31.38;19.85;;;7.00;99.90;;;;;;5028305;28;20198;-81
2021/03/09 08:27:42;;;;;;;25.08;17.80;;;7.00;99.90;;;;;;5030964;28;20221;-81
2021/03/09 08:30:26;;;;;;;23.58;16.98;;;7.00;99.90;;;;;;5032131;28;20200;-80
2021/03/09 08:32:53;;;;;;;26.13;18.90;;;7.00;99.90;;;;;;5031326;28;20238;-80
2021/03/09 08:35:36;;;;;;;24.75;18.13;;;7.00;99.90;;;;;;5031916;28;20211;-81
2021/03/09 08:38:21;;;;;;;25.35;17.83;;;7.00;99.90;;;;;;5031793;28;20214;-80
2021/03/09 08:41:10;;;;;;;22.73;16.75;;;7.00;99.90;;;;;;5030824;28;20207;-82
2021/03/09 08:43:38;;;;;;;23.88;17.85;;;7.00;99.90;;;;;;5029368;28;20242;-81
2021/03/09 08:46:09;;;;;;;23.08;16.30;;;7.00;99.90;;;;;;5029573;28;20662;-80
2021/03/09 08:48:56;;;;;;;26.40;17.35;;;7.00;99.90;;;;;;5025715;28;20208;-80
2021/03/09 08:51:46;;;;;;;24.98;18.02;;;7.10;99.90;;;;;;5030300;28;20231;-80
2021/03/09 08:54:36;;;;;;;25.83;18.15;;;7.00;99.90;;;;;;5030436;28;20195;-80
2021/03/09 08:57:05;;;;;;;25.85;16.95;;;7.00;99.90;;;;;;5032153;28;20256;-80
2021/03/09 08:59:33;;;;;;;25.15;16.75;;;7.10;99.90;;;;;;5032676;28;20223;-80
2021/03/09 09:02:14;;;;;;;25.75;17.27;;;7.00;99.90;;;;;;5029645;28;20223;-80
2021/03/09 09:04:42;;;;;;;21.75;16.27;;;7.00;99.90;;;;;;5023904;28;20416;-79
2021/03/09 09:07:35;;;;;;;21.63;15.90;;;7.10;99.90;;;;;;5025264;28;20722;-79
2021/03/09 09:10:08;;;;;;;24.80;17.33;;;7.00;99.90;;;;;;5034697;28;20262;-80
2021/03/09 09:12:37;;;;;;;21.92;15.30;;;7.10;99.90;;;;;;5029682;28;20208;-82
2021/03/09 09:15:19;;;;;;;25.38;17.45;;;7.10;99.90;;;;;;5031587;28;20223;-82
2021/03/09 09:17:48;;;;;;;22.38;15.43;;;7.10;99.90;;;;;;5032209;28;20222;-82
2021/03/09 09:20:18;;;;;;;22.45;16.02;;;7.10;99.90;;;;;;5021696;28;20220;-80
2021/03/09 09:22:46;;;;;;;19.38;15.55;;;7.20;99.90;;;;;;5031169;28;20199;-85
2021/03/09 09:25:14;;;;;;;23.13;17.73;;;7.10;99.90;;;;;;5033846;28;20219;-85
2021/03/09 09:27:47;;;;;;;20.73;15.40;;;7.10;99.90;;;;;;5018933;28;20212;-87
2021/03/09 09:30:17;;;;;;;18.48;14.13;;;7.20;99.90;;;;;;5035300;28;20699;-87
2021/03/09 09:32:52;;;;;;;18.85;14.40;;;7.00;99.90;;;;;;5022929;28;20236;-86
2021/03/09 09:35:19;;;;;;;25.90;17.65;;;7.10;99.90;;;;;;5035623;28;20222;-87
2021/03/09 09:37:52;;;;;;;21.08;15.60;;;7.10;99.90;;;;;;5028189;28;20200;-87
2021/03/09 09:40:21;;;;;;;21.38;15.38;;;7.10;99.90;;;;;;5035384;28;20246;-86
2021/03/09 09:43:00;;;;;;;21.75;16.00;;;7.10;99.90;;;;;;5034124;28;20200;-85
2021/03/09 09:45:28;;;;;;;24.90;17.30;;;7.10;99.90;;;;;;5032886;28;20226;-86
2021/03/09 09:47:55;;;;;;;22.58;16.05;;;7.20;99.90;;;;;;5033129;28;20216;-86
2021/03/09 09:50:22;;;;;;;23.05;16.40;;;7.10;99.90;;;;;;5034537;28;20890;-86
2021/03/09 09:52:56;;;;;;;19.27;15.18;;;7.10;99.90;;;;;;5033709;28;20231;-85
2021/03/09 09:55:24;;;;;;;21.95;16.27;;;7.10;99.90;;;;;;5014031;28;20203;-86
2021/03/09 09:57:51;;;;;;;22.33;16.52;;;7.20;99.90;;;;;;5023901;28;20235;-86
2021/03/09 10:00:24;;;;;;;22.00;16.35;;;7.20;99.90;;;;;;5027701;28;20571;-85
2021/03/09 10:03:16;;;;;;;20.67;14.77;;;7.10;99.90;;;;;;5023717;28;20189;-86
2021/03/09 10:05:44;;;;;;;18.92;14.40;;;7.10;99.90;;;;;;5033136;28;20632;-86
2021/03/09 10:08:12;;;;;;;21.75;15.75;;;7.20;99.90;;;;;;5034063;28;20211;-86
2021/03/09 10:10:40;;;;;;;16.35;13.63;;;7.20;99.90;;;;;;5019409;28;20219;-87
2021/03/09 10:13:19;;;;;;;20.27;13.68;;;7.30;99.90;;;;;;5014530;28;20223;-86
2021/03/09 10:15:47;;;;;;;21.60;15.48;;;7.10;99.90;;;;;;5018963;28;20217;-87
2021/03/09 10:18:21;;;;;;;18.58;13.75;;;7.20;99.90;;;;;;5033274;28;20219;-86
2021/03/09 10:20:58;;;;;;;21.40;15.23;;;7.20;99.90;;;;;;5030598;28;20269;-85
2021/03/09 10:23:24;;;;;;;19.42;14.05;;;7.20;99.90;;;;;;5020920;28;20223;-85
2021/03/09 10:25:57;;;;;;;16.88;14.70;;;7.20;99.90;;;;;;5026160;28;20211;-86
2021/03/09 10:28:25;;;;;;;18.50;14.02;;;7.20;99.90;;;;;;5034095;28;20208;-87
2021/03/09 10:30:54;;;;;;;22.23;15.45;;;7.20;99.90;;;;;;5034062;28;20222;-87
2021/03/09 10:33:20;;;;;;;19.67;15.82;;;7.20;99.90;;;;;;5038031;28;20222;-86
2021/03/09 10:36:04;;;;;;;18.73;14.75;;;7.20;99.90;;;;;;5032518;28;20219;-87
2021/03/09 10:38:30;;;;;;;18.52;14.70;;;7.20;99.90;;;;;;5028285;28;20223;-85
2021/03/09 10:40:56;;;;;;;21.73;14.75;;;7.20;99.90;;;;;;5022971;28;20562;-85
2021/03/09 10:43:38;;;;;;;19.15;13.98;;;7.30;99.90;;;;;;5017150;28;20641;-85
2021/03/09 10:46:05;;;;;;;21.70;13.65;;;7.10;99.90;;;;;;5033331;28;20222;-86
2021/03/09 10:48:31;;;;;;;18.67;14.52;;;7.20;99.90;;;;;;5012825;28;20220;-86
2021/03/09 10:50:58;;;;;;;19.08;15.77;;;7.20;99.90;;;;;;5000771;28;588938;-87
2021/03/09 10:53:24;;;;;;;16.85;13.68;;;7.20;99.90;;;;;;5030805;28;20227;-87
2021/03/09 10:55:51;;;;;;;16.70;12.93;;;7.20;99.90;;;;;;5032089;28;20262;-87
2021/03/09 10:58:17;;;;;;;18.90;13.88;;;7.20;99.90;;;;;;5018698;28;20219;-87
2021/03/09 11:00:43;;;;;;;22.00;14.80;;;7.10;99.90;;;;;;5033618;28;20187;-87
2021/03/09 11:03:10;;;;;;;16.38;12.55;;;7.10;99.90;;;;;;5025979;28;20745;-82
2021/03/09 11:05:37;;;;;;;21.60;13.90;;;7.10;99.90;;;;;;5030288;28;20673;-82
2021/03/09 11:08:03;;;;;;;17.05;12.48;;;7.20;99.90;;;;;;5030669;28;20227;-82
2021/03/09 11:10:29;;;;;;;19.65;15.43;;;7.20;99.90;;;;;;5030395;28;20832;-88
2021/03/09 11:12:56;;;;;;;19.13;15.18;;;7.20;99.90;;;;;;5030333;28;20223;-86
2021/03/09 11:15:22;;;;;;;16.90;12.00;;;7.20;99.90;;;;;;5032941;28;20223;-87
2021/03/09 11:17:48;;;;;;;16.45;12.82;;;7.30;99.90;;;;;;5031241;28;20207;-85
2021/03/09 11:20:18;;;;;;;19.77;13.13;;;7.20;99.90;;;;;;5028621;28;20215;-86
2021/03/09 11:22:44;;;;;;;17.38;12.90;;;7.20;99.90;;;;;;5030867;28;20281;-85
2021/03/09 11:25:11;;;;;;;18.58;14.13;;;7.20;99.90;;;;;;5031228;28;20223;-84
2021/03/09 11:27:37;;;;;;;18.63;13.32;;;7.20;99.90;;;;;;5026758;28;20203;-84
2021/03/09 11:30:05;;;;;;;20.25;15.18;;;7.20;99.90;;;;;;5027472;28;20753;-85
2021/03/09 11:32:31;;;;;;;18.83;14.15;;;7.20;99.90;;;;;;5021773;28;20945;-84
2021/03/09 11:34:57;;;;;;;17.13;13.63;;;7.20;99.90;;;;;;5028435;28;21129;-84
2021/03/09 11:37:24;;;;;;;18.42;13.85;;;7.30;99.90;;;;;;5016235;28;20563;-83
2021/03/09 11:39:50;;;;;;;16.48;13.48;;;7.20;99.90;;;;;;5025952;28;20187;-83
2021/03/09 11:42:17;;;;;;;18.63;12.95;;;7.20;99.90;;;;;;5032763;28;20207;-83
2021/03/09 11:44:43;;;;;;;21.70;15.55;;;7.30;99.90;;;;;;5030091;28;20225;-88
2021/03/09 11:47:09;;;;;;;19.67;14.73;;;7.30;99.90;;;;;;5025454;28;20220;-88
2021/03/09 11:49:36;;;;;;;17.85;14.88;;;7.90;99.90;;;;;;5028448;28;20224;-86
2021/03/09 11:52:02;;;;;;;17.92;13.60;;;7.40;99.90;;;;;;5017042;28;20291;-88
2021/03/09 11:54:30;;;;;;;21.23;15.15;;;7.30;99.90;;;;;;5033111;28;20220;-87
2021/03/09 11:56:56;;;;;;;18.05;14.88;;;7.30;99.90;;;;;;5034134;28;20224;-87
2021/03/09 11:59:23;;;;;;;21.52;14.90;;;7.30;99.90;;;;;;5017974;28;20200;-86
2021/03/09 12:01:49;;;;;;;22.17;16.13;;;7.40;99.90;;;;;;5012749;28;20201;-87
2021/03/09 12:04:17;;;;;;;22.70;16.20;;;7.30;99.90;;;;;;5011863;28;20207;-82
2021/03/09 12:06:43;;;;;;;24.65;14.68;;;7.40;99.90;;;;;;5010195;28;20223;-84
2021/03/09 12:09:10;;;;;;;19.60;14.82;;;7.60;99.90;;;;;;5011772;28;20211;-80
2021/03/09 12:11:37;;;;;;;23.13;16.17;;;7.40;99.90;;;;;;5010717;28;20216;-86
2021/03/09 12:14:03;;;;;;;22.20;15.75;;;7.40;99.90;;;;;;4991122;28;20323;-80
2021/03/09 12:16:29;;;;;;;23.10;15.20;;;7.40;99.90;;;;;;4996748;28;20216;-79
2021/03/09 12:18:56;;;;;;;24.20;16.95;;;7.40;99.90;;;;;;5008298;28;20691;-81
2021/03/09 12:21:22;;;;;;;19.38;15.63;;;7.50;99.90;;;;;;5009898;28;20347;-86
2021/03/09 12:23:50;;;;;;;19.52;15.25;;;7.40;99.90;;;;;;5013155;28;20208;-85
2021/03/09 12:26:16;;;;;;;23.77;15.60;;;7.40;99.90;;;;;;5012839;28;20204;-84
2021/03/09 12:28:43;;;;;;;21.42;14.77;;;7.40;99.90;;;;;;5014164;28;20216;-82
2021/03/09 12:31:09;;;;;;;25.00;16.30;;;7.40;99.90;;;;;;5011320;28;20221;-85
2021/03/09 12:33:36;;;;;;;23.05;14.93;;;7.40;99.90;;;;;;5004193;28;20236;-84
2021/03/09 12:36:02;;;;;;;23.23;15.02;;;7.40;99.90;;;;;;5012496;28;20255;-85
2021/03/09 12:38:29;;;;;;;26.17;16.88;;;7.40;99.90;;;;;;5004217;28;20208;-86
2021/03/09 12:40:55;;;;;;;22.60;15.85;;;7.40;99.90;;;;;;5012460;28;20697;-85
2021/03/09 12:43:23;;;;;;;25.83;15.43;;;7.40;99.90;;;;;;5004285;28;20223;-84
2021/03/09 12:45:50;;;;;;;22.63;13.60;;;7.30;99.90;;;;;;5006867;28;20224;-83
2021/03/09 12:48:17;;;;;;;21.90;14.65;;;7.40;99.90;;;;;;5011076;28;20198;-84